Time;durP1;ratioP1;P1;durP2;ratioP2;P2;SDS_P1;SDS_P2;PMS_P1;PMS_P2;Temp;Humidity;BMP_temperature;BMP_pressure;BME280_temperature;BME280_humidity;BME280_pressure;Samples;Min_cycle;Max_cycle;Signal;HPM_P1;HPM_P2
2023/05/01 00:02:26;;;;;;;18.60;11.40;;;;;;;;;;5030024;28;20421;-83
2023/05/01 00:04:53;;;;;;;17.77;11.68;;;;;;;;;;5032532;28;20426;-81
2023/05/01 00:07:19;;;;;;;17.17;10.93;;;;;;;;;;5028202;28;20513;-81
2023/05/01 00:09:46;;;;;;;17.53;10.93;;;;;;;;;;5029289;28;20427;-81
2023/05/01 00:12:12;;;;;;;17.13;11.75;;;;;;;;;;5031867;28;20454;-81
2023/05/01 00:14:38;;;;;;;21.80;11.83;;;;;;;;;;5032444;28;20418;-81
2023/05/01 00:17:05;;;;;;;15.15;11.65;;;;;;;;;;5031876;28;20429;-81
2023/05/01 00:19:32;;;;;;;18.05;11.68;;;;;;;;;;5032130;28;20901;-81
2023/05/01 00:21:59;;;;;;;16.23;10.80;;;;;;;;;;5031572;28;20905;-80
2023/05/01 00:24:26;;;;;;;16.60;10.85;;;;;;;;;;5033360;28;20430;-81
2023/05/01 00:26:52;;;;;;;16.30;10.80;;;;;;;;;;5035140;28;20407;-81
2023/05/01 00:29:18;;;;;;;18.52;11.00;;;;;;;;;;5036208;28;20419;-80
2023/05/01 00:31:46;;;;;;;16.13;11.07;;;;;;;;;;5035440;28;20423;-81
2023/05/01 00:34:12;;;;;;;14.50;10.20;;;;;;;;;;5036142;28;20425;-81
2023/05/01 00:36:40;;;;;;;17.75;12.20;;;;;;;;;;5035090;28;20429;-81
2023/05/01 00:39:07;;;;;;;23.45;12.50;;;;;;;;;;5036526;28;20410;-81
2023/05/01 00:41:33;;;;;;;20.63;11.00;;;;;;;;;;5035198;28;20429;-81
2023/05/01 00:44:00;;;;;;;20.65;10.93;;;;;;;;;;5035665;28;20426;-81
2023/05/01 00:46:28;;;;;;;15.30;11.00;;;;;;;;;;5035026;28;20415;-81
2023/05/01 00:48:55;;;;;;;18.83;11.70;;;;;;;;;;5018269;28;20901;-80
2023/05/01 00:51:23;;;;;;;17.10;11.52;;;;;;;;;;5034697;28;20489;-81
2023/05/01 00:53:51;;;;;;;16.33;10.63;;;;;;;;;;5032343;28;20467;-80
2023/05/01 00:56:18;;;;;;;15.77;10.98;;;;;;;;;;5022115;28;20418;-81
2023/05/01 00:58:45;;;;;;;17.88;11.32;;;;;;;;;;5033175;28;20421;-81
2023/05/01 01:01:12;;;;;;;15.43;11.60;;;;;;;;;;5026323;28;20428;-81
2023/05/01 01:03:38;;;;;;;15.43;10.80;;;;;;;;;;5034223;28;20422;-81
2023/05/01 01:06:06;;;;;;;17.27;11.00;;;;;;;;;;5034797;28;20579;-81
2023/05/01 01:08:35;;;;;;;16.88;11.10;;;;;;;;;;5031944;28;20419;-81
2023/05/01 01:13:42;;;;;;;20.73;12.00;;;;;;;;;;5025698;28;20400;-81
2023/05/01 01:16:12;;;;;;;17.02;10.77;;;;;;;;;;5034209;28;20434;-81
2023/05/01 01:18:41;;;;;;;14.90;10.43;;;;;;;;;;5034783;28;20510;-81
2023/05/01 01:21:09;;;;;;;15.75;10.07;;;;;;;;;;5034458;28;20421;-81
2023/05/01 01:23:53;;;;;;;13.38;9.75;;;;;;;;;;5017625;28;20414;-81
2023/05/01 01:26:29;;;;;;;12.93;9.20;;;;;;;;;;5034542;28;20434;-81
2023/05/01 01:29:10;;;;;;;15.48;10.02;;;;;;;;;;5035497;28;20419;-81
2023/05/01 01:31:40;;;;;;;18.13;10.70;;;;;;;;;;5033699;28;20422;-81
2023/05/01 01:34:13;;;;;;;14.10;9.57;;;;;;;;;;5027511;28;20844;-81
2023/05/01 01:36:41;;;;;;;13.18;9.20;;;;;;;;;;5026460;28;20419;-81
2023/05/01 01:39:16;;;;;;;14.80;9.30;;;;;;;;;;5034385;28;20410;-81
2023/05/01 01:41:47;;;;;;;14.70;9.80;;;;;;;;;;5033907;28;20473;-81
2023/05/01 01:44:19;;;;;;;12.70;9.20;;;;;;;;;;5034579;28;20431;-81
2023/05/01 01:46:46;;;;;;;12.23;9.35;;;;;;;;;;5034033;28;20420;-81
2023/05/01 01:49:16;;;;;;;13.10;9.35;;;;;;;;;;5029398;28;20434;-81
2023/05/01 01:51:43;;;;;;;13.68;9.73;;;;;;;;;;5021790;28;20457;-81
2023/05/01 01:54:11;;;;;;;13.63;9.48;;;;;;;;;;5021986;28;20416;-81
2023/05/01 01:56:37;;;;;;;15.10;8.68;;;;;;;;;;5024017;28;20421;-81
2023/05/01 01:59:04;;;;;;;12.63;9.00;;;;;;;;;;5034542;28;20411;-82
2023/05/01 02:01:32;;;;;;;13.43;8.85;;;;;;;;;;5033710;28;20422;-81
2023/05/01 02:04:00;;;;;;;11.05;8.88;;;;;;;;;;5031124;28;20430;-81
2023/05/01 02:06:28;;;;;;;12.75;9.80;;;;;;;;;;5032444;28;20426;-81
2023/05/01 02:08:56;;;;;;;13.20;9.18;;;;;;;;;;5029706;28;20439;-82
2023/05/01 02:11:24;;;;;;;12.55;8.98;;;;;;;;;;5021824;28;20425;-81
2023/05/01 02:13:51;;;;;;;14.75;9.00;;;;;;;;;;5018158;28;20422;-81
2023/05/01 02:16:18;;;;;;;14.00;9.57;;;;;;;;;;5016289;28;20423;-81
2023/05/01 02:18:46;;;;;;;12.57;8.57;;;;;;;;;;5032225;28;20450;-81
2023/05/01 02:21:13;;;;;;;13.10;9.10;;;;;;;;;;5033645;28;20419;-81
2023/05/01 02:23:41;;;;;;;11.95;8.50;;;;;;;;;;5029078;28;20430;-81
2023/05/01 02:26:08;;;;;;;12.05;9.05;;;;;;;;;;5033442;28;20422;-81
2023/05/01 02:28:36;;;;;;;10.82;8.55;;;;;;;;;;5026998;28;20426;-81
2023/05/01 02:31:02;;;;;;;10.83;8.80;;;;;;;;;;5033225;28;20419;-81
2023/05/01 02:33:28;;;;;;;13.07;9.10;;;;;;;;;;5032618;28;20415;-81
2023/05/01 02:35:55;;;;;;;14.30;9.10;;;;;;;;;;5024924;28;20421;-81
2023/05/01 02:38:21;;;;;;;15.57;8.77;;;;;;;;;;5033857;28;20419;-81
2023/05/01 02:40:51;;;;;;;14.68;8.32;;;;;;;;;;5027163;28;20428;-81
2023/05/01 02:43:19;;;;;;;13.82;8.95;;;;;;;;;;5033591;28;20414;-80
2023/05/01 02:45:46;;;;;;;11.20;8.10;;;;;;;;;;5032932;28;20411;-81
2023/05/01 02:48:13;;;;;;;11.75;8.90;;;;;;;;;;5033059;28;20419;-81
2023/05/01 02:50:40;;;;;;;11.55;7.90;;;;;;;;;;5029793;28;20417;-81
2023/05/01 02:53:07;;;;;;;11.18;7.80;;;;;;;;;;5033587;28;20476;-81
2023/05/01 02:55:34;;;;;;;11.80;7.93;;;;;;;;;;5032260;28;20419;-80
2023/05/01 02:58:01;;;;;;;11.57;8.07;;;;;;;;;;5029705;28;20431;-81
2023/05/01 03:00:28;;;;;;;12.90;8.30;;;;;;;;;;5031079;28;20824;-81
2023/05/01 03:02:55;;;;;;;9.85;7.80;;;;;;;;;;5033730;28;20828;-81
2023/05/01 03:05:21;;;;;;;10.80;9.10;;;;;;;;;;5040194;28;20942;-81
2023/05/01 03:07:48;;;;;;;13.77;8.60;;;;;;;;;;5025777;28;20415;-81
2023/05/01 03:10:14;;;;;;;12.23;7.93;;;;;;;;;;5024999;28;20415;-81
2023/05/01 03:12:41;;;;;;;12.10;7.90;;;;;;;;;;5033153;28;20435;-81
2023/05/01 03:15:10;;;;;;;12.10;8.73;;;;;;;;;;5032310;28;20430;-81
2023/05/01 03:17:36;;;;;;;11.75;8.30;;;;;;;;;;5033148;28;20430;-81
2023/05/01 03:20:05;;;;;;;12.45;7.95;;;;;;;;;;5015240;28;20411;-81
2023/05/01 03:22:31;;;;;;;11.68;8.65;;;;;;;;;;5033475;28;20414;-81
2023/05/01 03:24:58;;;;;;;13.90;8.95;;;;;;;;;;5032649;28;20419;-81
2023/05/01 03:27:26;;;;;;;12.82;8.35;;;;;;;;;;5033664;28;20418;-80
2023/05/01 03:29:52;;;;;;;10.65;8.63;;;;;;;;;;5023545;28;20469;-81
2023/05/01 03:32:20;;;;;;;11.70;8.25;;;;;;;;;;5033481;28;20489;-80
2023/05/01 03:34:46;;;;;;;15.20;8.05;;;;;;;;;;5035001;28;20410;-81
2023/05/01 03:37:13;;;;;;;12.00;8.50;;;;;;;;;;5024812;28;20982;-81
2023/05/01 03:39:40;;;;;;;15.68;8.20;;;;;;;;;;5035563;28;20419;-81
2023/05/01 03:42:06;;;;;;;13.48;8.32;;;;;;;;;;5034693;28;20487;-80
2023/05/01 03:44:33;;;;;;;11.02;8.32;;;;;;;;;;5033349;28;20431;-81
2023/05/01 03:46:59;;;;;;;14.18;8.38;;;;;;;;;;5032395;28;20411;-81
2023/05/01 03:49:27;;;;;;;13.43;8.50;;;;;;;;;;5032487;28;20758;-81
2023/05/01 03:51:54;;;;;;;13.18;8.40;;;;;;;;;;5027129;28;20420;-83
2023/05/01 03:54:20;;;;;;;11.60;7.60;;;;;;;;;;5026664;28;20481;-81
2023/05/01 03:56:46;;;;;;;8.88;7.43;;;;;;;;;;5028230;28;20431;-81
2023/05/01 03:59:13;;;;;;;11.80;7.67;;;;;;;;;;5022405;28;20458;-81
2023/05/01 04:01:39;;;;;;;11.98;8.40;;;;;;;;;;5025712;28;20438;-81
2023/05/01 04:04:06;;;;;;;11.73;7.80;;;;;;;;;;5031088;28;20606;-81
2023/05/01 04:06:35;;;;;;;11.77;8.27;;;;;;;;;;5032166;28;20415;-81
2023/05/01 04:09:02;;;;;;;12.88;7.72;;;;;;;;;;5032470;28;20422;-81
2023/05/01 04:11:28;;;;;;;14.95;7.68;;;;;;;;;;5031796;28;20538;-81
2023/05/01 04:13:54;;;;;;;14.38;7.80;;;;;;;;;;5022702;28;20447;-81
2023/05/01 04:16:21;;;;;;;14.77;8.18;;;;;;;;;;5031863;28;20431;-80
2023/05/01 04:18:49;;;;;;;12.23;7.80;;;;;;;;;;5018164;28;20420;-81
2023/05/01 04:21:17;;;;;;;12.13;8.40;;;;;;;;;;5030306;28;21051;-81
2023/05/01 04:23:45;;;;;;;13.75;7.93;;;;;;;;;;5025962;28;20472;-81
2023/05/01 04:26:11;;;;;;;14.07;7.93;;;;;;;;;;5034842;28;20423;-81
2023/05/01 04:28:38;;;;;;;11.73;8.27;;;;;;;;;;5032246;28;20502;-81
2023/05/01 04:31:04;;;;;;;12.38;7.97;;;;;;;;;;5014249;28;20419;-81
2023/05/01 04:33:31;;;;;;;12.35;7.53;;;;;;;;;;5030225;28;20418;-81
2023/05/01 04:35:57;;;;;;;13.33;7.80;;;;;;;;;;5023532;28;20414;-81
2023/05/01 04:38:23;;;;;;;13.50;8.18;;;;;;;;;;5032000;28;20893;-81
2023/05/01 04:40:51;;;;;;;11.68;7.20;;;;;;;;;;5025880;28;20415;-81
2023/05/01 04:43:18;;;;;;;12.00;7.70;;;;;;;;;;5031266;28;20927;-81
2023/05/01 04:45:44;;;;;;;12.57;7.70;;;;;;;;;;5031173;28;20414;-81
2023/05/01 04:48:11;;;;;;;13.55;7.95;;;;;;;;;;5013977;28;20499;-81
2023/05/01 04:50:37;;;;;;;11.35;7.03;;;;;;;;;;5030994;28;20423;-81
2023/05/01 04:53:03;;;;;;;10.63;7.57;;;;;;;;;;5031847;28;20423;-81
2023/05/01 04:55:30;;;;;;;9.13;7.53;;;;;;;;;;5033250;28;20414;-81
2023/05/01 04:57:58;;;;;;;10.73;7.47;;;;;;;;;;5040725;28;20817;-81
2023/05/01 05:00:24;;;;;;;12.20;7.68;;;;;;;;;;5021888;28;20422;-81
2023/05/01 05:02:50;;;;;;;11.55;7.53;;;;;;;;;;5031768;28;20406;-81
2023/05/01 05:05:17;;;;;;;10.68;7.07;;;;;;;;;;5030808;28;20956;-81
2023/05/01 05:07:43;;;;;;;14.18;7.70;;;;;;;;;;5031858;28;20422;-81
2023/05/01 05:10:10;;;;;;;11.20;7.50;;;;;;;;;;5032397;28;20777;-80
2023/05/01 05:12:36;;;;;;;11.95;7.88;;;;;;;;;;5035142;28;20427;-82
2023/05/01 05:15:04;;;;;;;9.55;6.95;;;;;;;;;;5035156;28;20415;-81
2023/05/01 05:17:30;;;;;;;10.43;7.13;;;;;;;;;;5034993;28;20905;-81
2023/05/01 05:19:57;;;;;;;11.57;6.72;;;;;;;;;;5034014;28;20419;-81
2023/05/01 05:22:24;;;;;;;14.35;7.43;;;;;;;;;;5034862;28;20438;-81
2023/05/01 05:24:53;;;;;;;11.27;7.47;;;;;;;;;;5029063;28;20419;-81
2023/05/01 05:27:20;;;;;;;12.50;7.20;;;;;;;;;;5027368;28;20491;-81
2023/05/01 05:29:46;;;;;;;11.15;6.93;;;;;;;;;;5018383;28;20624;-81
2023/05/01 05:32:14;;;;;;;13.82;7.10;;;;;;;;;;5034231;28;20425;-81
2023/05/01 05:34:40;;;;;;;12.15;7.25;;;;;;;;;;5034936;28;20473;-81
2023/05/01 05:37:07;;;;;;;9.60;6.70;;;;;;;;;;5033717;28;20426;-81
2023/05/01 05:39:33;;;;;;;14.05;8.57;;;;;;;;;;5034506;28;20415;-81
2023/05/01 05:42:00;;;;;;;11.07;6.73;;;;;;;;;;5033906;28;20422;-81
2023/05/01 05:44:26;;;;;;;8.93;6.20;;;;;;;;;;5034205;28;20419;-81
2023/05/01 05:46:52;;;;;;;10.93;7.20;;;;;;;;;;5033038;28;20407;-81
2023/05/01 05:49:20;;;;;;;13.35;8.00;;;;;;;;;;5034521;28;20415;-81
2023/05/01 05:51:47;;;;;;;16.60;7.88;;;;;;;;;;5032694;28;20426;-81
2023/05/01 05:54:13;;;;;;;11.25;7.32;;;;;;;;;;5034311;28;20438;-81
2023/05/01 05:56:39;;;;;;;15.55;8.75;;;;;;;;;;5033444;28;20877;-81
2023/05/01 05:59:06;;;;;;;13.50;8.10;;;;;;;;;;5034308;28;20415;-81
2023/05/01 06:01:32;;;;;;;15.23;7.47;;;;;;;;;;5031135;28;20426;-81
2023/05/01 06:03:58;;;;;;;11.05;6.70;;;;;;;;;;5034284;28;20492;-81
2023/05/01 06:06:26;;;;;;;12.52;7.70;;;;;;;;;;5033290;28;20454;-83
2023/05/01 06:08:53;;;;;;;13.55;7.68;;;;;;;;;;5030413;28;20909;-81
2023/05/01 06:11:20;;;;;;;14.15;8.13;;;;;;;;;;5025834;28;20422;-81
2023/05/01 06:13:47;;;;;;;14.90;7.90;;;;;;;;;;5034237;28;20490;-81
2023/05/01 06:16:14;;;;;;;14.30;8.05;;;;;;;;;;5033268;28;20423;-81
2023/05/01 06:18:40;;;;;;;12.68;7.80;;;;;;;;;;5030455;28;20442;-81
2023/05/01 06:21:06;;;;;;;14.45;7.47;;;;;;;;;;5032920;28;20418;-81
2023/05/01 06:23:34;;;;;;;11.50;7.25;;;;;;;;;;5031858;28;20801;-82
2023/05/01 06:26:00;;;;;;;15.82;8.98;;;;;;;;;;5033040;28;20415;-81
2023/05/01 06:28:27;;;;;;;16.08;9.63;;;;;;;;;;5033714;28;20448;-80
2023/05/01 06:30:53;;;;;;;14.83;8.60;;;;;;;;;;5032998;28;20422;-80
2023/05/01 06:33:19;;;;;;;15.35;8.40;;;;;;;;;;5029926;28;20809;-81
2023/05/01 06:35:46;;;;;;;15.33;8.10;;;;;;;;;;5032923;28;20426;-81
2023/05/01 06:38:12;;;;;;;15.32;8.10;;;;;;;;;;5032906;28;20449;-81
2023/05/01 06:40:40;;;;;;;11.20;6.97;;;;;;;;;;5028987;28;20945;-81
2023/05/01 06:43:06;;;;;;;14.45;6.90;;;;;;;;;;5031894;28;20411;-81
2023/05/01 06:45:33;;;;;;;13.55;7.55;;;;;;;;;;5032616;28;20430;-83
2023/05/01 06:47:59;;;;;;;8.63;6.15;;;;;;;;;;5033309;28;20410;-81
2023/05/01 06:50:25;;;;;;;14.27;6.82;;;;;;;;;;5028208;28;20412;-82
2023/05/01 06:52:52;;;;;;;16.53;7.67;;;;;;;;;;5033329;28;20517;-81
2023/05/01 06:55:18;;;;;;;14.18;6.90;;;;;;;;;;5032498;28;20399;-81
2023/05/01 06:57:46;;;;;;;16.03;7.40;;;;;;;;;;5029255;28;20928;-81
2023/05/01 07:00:13;;;;;;;13.98;6.55;;;;;;;;;;5032378;28;20426;-81
2023/05/01 07:02:39;;;;;;;9.80;5.87;;;;;;;;;;5038841;28;20458;-81
2023/05/01 07:05:06;;;;;;;12.75;6.40;;;;;;;;;;5029745;28;20446;-81
2023/05/01 07:07:32;;;;;;;10.23;5.80;;;;;;;;;;5030771;28;20417;-81
2023/05/01 07:10:00;;;;;;;13.70;6.25;;;;;;;;;;5029145;28;20415;-81
2023/05/01 07:12:26;;;;;;;8.27;6.00;;;;;;;;;;5022016;28;20459;-81
2023/05/01 07:14:55;;;;;;;9.45;6.22;;;;;;;;;;5031889;28;20797;-81
2023/05/01 07:17:22;;;;;;;10.50;6.90;;;;;;;;;;5029848;28;20423;-81
2023/05/01 07:19:48;;;;;;;10.88;6.13;;;;;;;;;;5026806;28;20430;-81
2023/05/01 07:22:15;;;;;;;12.32;5.90;;;;;;;;;;5025585;28;20418;-81
2023/05/01 07:24:41;;;;;;;10.07;6.00;;;;;;;;;;5032671;28;20411;-82
2023/05/01 07:27:08;;;;;;;13.65;5.70;;;;;;;;;;5023255;28;20427;-81
2023/05/01 07:29:35;;;;;;;11.35;5.10;;;;;;;;;;5031975;28;20415;-81
2023/05/01 07:32:04;;;;;;;12.27;5.50;;;;;;;;;;5023423;28;20423;-81
2023/05/01 07:34:30;;;;;;;8.90;5.60;;;;;;;;;;5032327;28;20889;-81
2023/05/01 07:36:57;;;;;;;10.98;5.70;;;;;;;;;;5031826;28;20415;-81
2023/05/01 07:39:23;;;;;;;9.35;5.30;;;;;;;;;;5032429;28;20415;-81
2023/05/01 07:41:50;;;;;;;10.80;6.17;;;;;;;;;;5019029;28;20490;-81
2023/05/01 07:44:16;;;;;;;11.32;5.35;;;;;;;;;;5014419;28;20797;-81
2023/05/01 07:46:42;;;;;;;10.43;4.70;;;;;;;;;;5030333;28;20430;-81
2023/05/01 07:49:10;;;;;;;11.50;6.10;;;;;;;;;;5031613;28;20422;-81
2023/05/01 07:51:36;;;;;;;9.40;5.00;;;;;;;;;;5028447;28;20486;-81
2023/05/01 07:54:03;;;;;;;12.27;5.15;;;;;;;;;;5030512;28;20434;-80
2023/05/01 07:56:29;;;;;;;11.90;5.90;;;;;;;;;;5027989;28;20490;-83
2023/05/01 07:58:56;;;;;;;12.40;6.60;;;;;;;;;;5031533;28;20477;-81
2023/05/01 08:01:22;;;;;;;12.13;5.75;;;;;;;;;;5031459;28;20933;-81
2023/05/01 08:03:48;;;;;;;14.45;6.10;;;;;;;;;;5032118;28;20414;-81
2023/05/01 08:06:16;;;;;;;11.15;6.82;;;;;;;;;;5012187;28;20434;-81
2023/05/01 08:08:43;;;;;;;10.55;5.90;;;;;;;;;;5031638;28;20411;-81
2023/05/01 08:11:09;;;;;;;10.05;4.97;;;;;;;;;;5030909;28;20423;-81
2023/05/01 08:13:35;;;;;;;11.02;5.65;;;;;;;;;;5031816;28;20423;-81
2023/05/01 08:16:02;;;;;;;11.35;5.50;;;;;;;;;;5031155;28;20422;-81
2023/05/01 08:18:28;;;;;;;11.02;5.60;;;;;;;;;;5026644;28;20464;-81
2023/05/01 08:20:55;;;;;;;8.95;5.28;;;;;;;;;;5031108;28;20916;-81
2023/05/01 08:23:24;;;;;;;9.27;5.28;;;;;;;;;;5021482;28;20421;-81
2023/05/01 08:25:51;;;;;;;10.93;5.30;;;;;;;;;;5028448;28;20502;-81
2023/05/01 08:28:19;;;;;;;12.50;5.20;;;;;;;;;;5031533;28;20427;-81
2023/05/01 08:30:47;;;;;;;9.43;4.90;;;;;;;;;;5030423;28;20415;-81
2023/05/01 08:33:13;;;;;;;12.32;5.90;;;;;;;;;;5031567;28;20431;-81
2023/05/01 08:35:39;;;;;;;14.35;5.90;;;;;;;;;;5030674;28;21028;-81
2023/05/01 08:38:06;;;;;;;11.73;5.88;;;;;;;;;;5031620;28;20438;-81
2023/05/01 08:40:37;;;;;;;9.77;6.15;;;;;;;;;;5030879;28;20410;-82
2023/05/01 08:43:04;;;;;;;10.60;5.57;;;;;;;;;;5031163;28;20407;-81
2023/05/01 08:45:34;;;;;;;9.60;5.50;;;;;;;;;;5033818;28;20425;-81
2023/05/01 08:48:02;;;;;;;10.80;5.82;;;;;;;;;;5032056;28;20902;-81
2023/05/01 08:50:29;;;;;;;10.60;6.00;;;;;;;;;;5033218;28;20887;-81
2023/05/01 08:52:57;;;;;;;9.60;5.90;;;;;;;;;;5034980;28;20530;-82
2023/05/01 08:55:25;;;;;;;11.90;5.90;;;;;;;;;;5034595;28;20415;-81
2023/05/01 08:57:54;;;;;;;12.77;6.57;;;;;;;;;;5034699;28;20512;-81
2023/05/01 09:00:21;;;;;;;11.63;5.80;;;;;;;;;;5030962;28;20421;-81
2023/05/01 09:02:48;;;;;;;10.30;5.50;;;;;;;;;;5017542;28;20415;-81
2023/05/01 09:05:15;;;;;;;9.60;5.50;;;;;;;;;;5034629;28;20472;-81
2023/05/01 09:07:42;;;;;;;13.00;5.60;;;;;;;;;;5030366;28;20435;-81
2023/05/01 09:10:09;;;;;;;10.15;5.93;;;;;;;;;;5026195;28;20439;-81
2023/05/01 09:12:36;;;;;;;12.68;7.40;;;;;;;;;;5032244;28;20913;-80
2023/05/01 09:15:06;;;;;;;12.07;6.00;;;;;;;;;;5033064;28;20489;-81
2023/05/01 09:17:32;;;;;;;14.00;6.53;;;;;;;;;;5032293;28;20905;-81
2023/05/01 09:19:59;;;;;;;11.65;5.90;;;;;;;;;;5033651;28;20427;-81
2023/05/01 09:22:25;;;;;;;11.18;5.63;;;;;;;;;;5017401;28;20410;-83
2023/05/01 09:24:51;;;;;;;8.95;5.25;;;;;;;;;;5034754;28;20427;-81
2023/05/01 09:27:18;;;;;;;9.65;4.88;;;;;;;;;;5029518;28;20423;-82
2023/05/01 09:29:45;;;;;;;9.05;5.10;;;;;;;;;;5016882;28;20411;-81
2023/05/01 09:32:19;;;;;;;8.47;5.10;;;;;;;;;;5034794;28;20422;-81
2023/05/01 09:34:45;;;;;;;7.38;4.88;;;;;;;;;;5032878;28;20510;-81
2023/05/01 09:37:26;;;;;;;11.93;5.80;;;;;;;;;;5033781;28;21037;-81
2023/05/01 09:40:00;;;;;;;11.43;6.60;;;;;;;;;;5023874;28;20431;-81
2023/05/01 09:42:27;;;;;;;7.97;5.13;;;;;;;;;;5030888;28;20415;-81
2023/05/01 09:44:53;;;;;;;8.95;5.10;;;;;;;;;;5034301;28;20438;-81
2023/05/01 09:47:22;;;;;;;7.10;5.20;;;;;;;;;;5033379;28;20418;-81
2023/05/01 09:49:48;;;;;;;6.30;4.53;;;;;;;;;;5029502;28;20461;-81
2023/05/01 09:52:15;;;;;;;7.63;5.10;;;;;;;;;;5029345;28;20427;-81
2023/05/01 09:54:42;;;;;;;6.35;4.63;;;;;;;;;;5033796;28;20920;-81
2023/05/01 09:57:08;;;;;;;9.18;5.00;;;;;;;;;;5031933;28;20987;-81
2023/05/01 09:59:35;;;;;;;9.88;4.88;;;;;;;;;;5033941;28;20461;-81
2023/05/01 10:02:01;;;;;;;7.17;4.83;;;;;;;;;;5033297;28;20411;-81
2023/05/01 10:04:32;;;;;;;7.80;4.90;;;;;;;;;;5032900;28;20909;-81
2023/05/01 10:07:00;;;;;;;8.80;4.20;;;;;;;;;;5029616;28;20762;-81
2023/05/01 10:09:27;;;;;;;8.45;5.00;;;;;;;;;;5016041;28;20426;-81
2023/05/01 10:11:57;;;;;;;8.20;4.60;;;;;;;;;;5026604;28;20424;-81
2023/05/01 10:14:25;;;;;;;5.80;4.37;;;;;;;;;;5033864;28;20512;-81
2023/05/01 10:16:52;;;;;;;8.25;4.40;;;;;;;;;;5028008;28;20929;-82
2023/05/01 10:19:19;;;;;;;7.43;4.20;;;;;;;;;;5032767;28;20553;-81
2023/05/01 10:21:47;;;;;;;5.80;4.28;;;;;;;;;;5015485;28;20419;-81
2023/05/01 10:24:15;;;;;;;7.90;4.70;;;;;;;;;;5033799;28;20498;-81
2023/05/01 10:26:42;;;;;;;9.03;5.07;;;;;;;;;;5032738;28;20443;-81
2023/05/01 10:29:08;;;;;;;8.63;4.80;;;;;;;;;;5011034;28;20430;-81
2023/05/01 10:31:35;;;;;;;8.35;5.38;;;;;;;;;;5031836;28;20429;-81
2023/05/01 10:34:01;;;;;;;6.18;4.60;;;;;;;;;;5026297;28;20438;-81
2023/05/01 10:36:36;;;;;;;9.60;5.20;;;;;;;;;;5032720;28;20932;-81
2023/05/01 10:39:04;;;;;;;8.00;4.80;;;;;;;;;;5032526;28;20457;-81
2023/05/01 10:41:49;;;;;;;8.33;4.60;;;;;;;;;;5024512;28;20431;-81
2023/05/01 10:44:22;;;;;;;8.98;4.78;;;;;;;;;;5031879;28;20501;-83
2023/05/01 10:46:48;;;;;;;7.95;4.30;;;;;;;;;;5030618;28;20426;-82
2023/05/01 10:49:15;;;;;;;8.82;5.00;;;;;;;;;;5031773;28;20427;-83
2023/05/01 10:51:57;;;;;;;8.85;5.20;;;;;;;;;;5031284;28;20443;-82
2023/05/01 10:54:28;;;;;;;6.85;4.50;;;;;;;;;;5031051;28;20851;-83
2023/05/01 10:56:55;;;;;;;9.40;5.00;;;;;;;;;;5029435;28;20789;-82
2023/05/01 10:59:21;;;;;;;8.45;4.80;;;;;;;;;;5028299;28;20415;-84
2023/05/01 11:01:50;;;;;;;6.65;5.55;;;;;;;;;;5031826;28;20785;-82
2023/05/01 11:04:49;;;;;;;6.93;4.75;;;;;;;;;;5032511;28;20443;-82
2023/05/01 11:07:17;;;;;;;7.18;4.50;;;;;;;;;;4948611;28;20963;-82
2023/05/01 11:09:45;;;;;;;8.73;4.93;;;;;;;;;;4997113;28;20425;-82
2023/05/01 11:12:12;;;;;;;7.45;4.53;;;;;;;;;;5006761;28;20423;-81
2023/05/01 11:15:01;;;;;;;7.57;3.90;;;;;;;;;;5032634;28;20423;-82
2023/05/01 11:17:42;;;;;;;7.60;4.60;;;;;;;;;;5017558;28;20407;-82
2023/05/01 11:20:09;;;;;;;6.10;4.30;;;;;;;;;;5026002;28;20407;-81
2023/05/01 11:22:36;;;;;;;8.18;5.07;;;;;;;;;;5032509;28;20425;-82
2023/05/01 11:25:04;;;;;;;6.70;4.90;;;;;;;;;;5031938;28;20418;-81
2023/05/01 11:27:31;;;;;;;7.20;5.00;;;;;;;;;;5032290;28;20430;-81
2023/05/01 11:29:59;;;;;;;8.82;4.57;;;;;;;;;;5031546;28;20415;-82
2023/05/01 11:32:28;;;;;;;11.27;5.10;;;;;;;;;;5032394;28;20425;-83
2023/05/01 11:34:55;;;;;;;5.57;4.22;;;;;;;;;;5031616;28;20787;-82
2023/05/01 11:37:38;;;;;;;7.30;3.80;;;;;;;;;;5011147;28;20425;-82
2023/05/01 11:40:18;;;;;;;6.03;3.90;;;;;;;;;;5031523;28;20410;-83
2023/05/01 11:42:44;;;;;;;5.07;3.80;;;;;;;;;;5020304;28;20411;-82
2023/05/01 11:45:11;;;;;;;8.18;4.18;;;;;;;;;;5031508;28;20414;-82
2023/05/01 11:47:38;;;;;;;7.47;4.53;;;;;;;;;;5031645;28;20893;-82
2023/05/01 11:50:04;;;;;;;6.50;3.88;;;;;;;;;;5011372;28;20457;-82
2023/05/01 11:52:40;;;;;;;5.82;3.80;;;;;;;;;;5031036;28;20411;-82
2023/05/01 11:55:09;;;;;;;5.80;3.90;;;;;;;;;;5031001;28;20430;-81
2023/05/01 11:57:44;;;;;;;4.57;3.33;;;;;;;;;;5031414;28;20429;-82
2023/05/01 12:00:11;;;;;;;4.40;3.10;;;;;;;;;;5025174;28;20922;-82
2023/05/01 12:02:37;;;;;;;6.85;3.50;;;;;;;;;;5030012;28;20955;-81
2023/05/01 12:05:14;;;;;;;5.50;3.17;;;;;;;;;;5029037;28;20431;-82
2023/05/01 12:07:40;;;;;;;5.90;3.30;;;;;;;;;;5029965;28;20415;-82
2023/05/01 12:10:07;;;;;;;4.80;3.50;;;;;;;;;;5030676;28;20418;-82
2023/05/01 12:12:35;;;;;;;6.15;3.63;;;;;;;;;;5030796;28;20427;-82
2023/05/01 12:15:02;;;;;;;5.43;3.05;;;;;;;;;;5031093;28;20435;-82
2023/05/01 12:17:29;;;;;;;5.30;3.20;;;;;;;;;;5029980;28;20493;-82
2023/05/01 12:19:56;;;;;;;6.60;3.30;;;;;;;;;;5028449;28;20422;-82
2023/05/01 12:22:23;;;;;;;5.90;3.13;;;;;;;;;;5028457;28;20468;-82
2023/05/01 12:24:51;;;;;;;4.70;2.88;;;;;;;;;;5031541;28;20805;-82
2023/05/01 12:27:17;;;;;;;4.40;3.15;;;;;;;;;;5030904;28;20791;-82
2023/05/01 12:29:46;;;;;;;4.57;3.00;;;;;;;;;;5031260;28;20411;-82
2023/05/01 12:32:13;;;;;;;4.40;2.90;;;;;;;;;;5028485;28;20477;-82
2023/05/01 12:34:40;;;;;;;6.47;3.63;;;;;;;;;;5031377;28;20442;-82
2023/05/01 12:37:07;;;;;;;5.60;3.50;;;;;;;;;;5032254;28;20889;-82
2023/05/01 12:39:37;;;;;;;5.18;3.17;;;;;;;;;;5028086;28;20453;-82
2023/05/01 12:42:03;;;;;;;4.18;3.30;;;;;;;;;;5013545;28;20423;-82
2023/05/01 12:44:29;;;;;;;3.55;3.17;;;;;;;;;;5031268;28;20410;-82
2023/05/01 12:46:59;;;;;;;5.85;3.47;;;;;;;;;;5028189;28;20430;-82
2023/05/01 12:49:26;;;;;;;5.70;3.13;;;;;;;;;;5031195;28;20788;-82
2023/05/01 12:51:53;;;;;;;4.60;3.22;;;;;;;;;;5007885;28;20423;-82
2023/05/01 12:54:20;;;;;;;4.10;3.00;;;;;;;;;;5031321;28;20457;-82
2023/05/01 12:56:46;;;;;;;4.63;3.10;;;;;;;;;;5030433;28;20828;-82
2023/05/01 12:59:20;;;;;;;4.23;2.50;;;;;;;;;;5031435;28;20414;-82
2023/05/01 13:01:46;;;;;;;3.10;2.30;;;;;;;;;;5030574;28;20469;-82
2023/05/01 13:04:19;;;;;;;5.10;3.10;;;;;;;;;;5030925;28;20437;-82
2023/05/01 13:06:46;;;;;;;5.35;2.58;;;;;;;;;;5029312;28;20423;-82
2023/05/01 13:09:14;;;;;;;4.60;2.30;;;;;;;;;;5031361;28;20415;-82
2023/05/01 13:11:40;;;;;;;4.25;2.80;;;;;;;;;;5030184;28;20425;-82
2023/05/01 13:14:07;;;;;;;4.13;2.70;;;;;;;;;;5031247;28;20514;-82
2023/05/01 13:16:34;;;;;;;3.25;2.35;;;;;;;;;;5030621;28;20415;-82
2023/05/01 13:19:00;;;;;;;6.35;3.47;;;;;;;;;;5031442;28;20414;-82
2023/05/01 13:21:28;;;;;;;4.35;2.38;;;;;;;;;;5028157;28;20415;-82
2023/05/01 13:23:55;;;;;;;3.80;2.30;;;;;;;;;;5031283;28;20418;-82
2023/05/01 13:26:25;;;;;;;4.88;2.42;;;;;;;;;;5030199;28;20908;-82
2023/05/01 13:28:52;;;;;;;3.45;2.25;;;;;;;;;;5027018;28;20510;-82
2023/05/01 13:31:18;;;;;;;5.18;2.53;;;;;;;;;;5029744;28;20430;-83
2023/05/01 13:33:45;;;;;;;4.70;2.60;;;;;;;;;;5033983;28;20424;-82
2023/05/01 13:36:12;;;;;;;3.72;2.40;;;;;;;;;;5033936;28;20415;-82
2023/05/01 13:38:44;;;;;;;3.97;2.58;;;;;;;;;;5034152;28;20411;-82
2023/05/01 13:41:14;;;;;;;3.58;2.40;;;;;;;;;;5031821;28;20419;-82
2023/05/01 13:43:41;;;;;;;3.42;2.22;;;;;;;;;;5030074;28;20422;-82
2023/05/01 13:46:08;;;;;;;3.55;2.40;;;;;;;;;;5033573;28;20817;-82
2023/05/01 13:48:34;;;;;;;3.88;2.38;;;;;;;;;;5023666;28;20419;-82
2023/05/01 13:51:00;;;;;;;3.92;2.30;;;;;;;;;;5033624;28;20415;-82
2023/05/01 13:53:27;;;;;;;3.92;2.30;;;;;;;;;;5034003;28;20920;-81
2023/05/01 13:55:55;;;;;;;3.85;2.60;;;;;;;;;;5013324;28;20421;-82
2023/05/01 13:58:21;;;;;;;4.30;2.20;;;;;;;;;;5034015;28;20410;-82
2023/05/01 14:00:48;;;;;;;4.67;2.47;;;;;;;;;;5033765;28;20419;-81
2023/05/01 14:03:15;;;;;;;3.97;2.30;;;;;;;;;;5033738;28;20414;-82
2023/05/01 14:05:42;;;;;;;4.32;2.20;;;;;;;;;;5029315;28;20419;-82
2023/05/01 14:08:09;;;;;;;3.40;2.20;;;;;;;;;;5033691;28;20894;-82
2023/05/01 14:10:36;;;;;;;8.02;2.90;;;;;;;;;;5033036;28;20486;-82
2023/05/01 14:13:04;;;;;;;4.40;2.70;;;;;;;;;;5031779;28;20438;-82
2023/05/01 14:15:31;;;;;;;3.47;2.60;;;;;;;;;;5021383;28;20419;-82
2023/05/01 14:17:59;;;;;;;4.20;3.10;;;;;;;;;;5033589;28;20929;-82
2023/05/01 14:20:26;;;;;;;6.53;3.78;;;;;;;;;;5019221;28;20440;-83
2023/05/01 14:22:52;;;;;;;4.13;2.90;;;;;;;;;;5033638;28;20484;-82
2023/05/01 14:25:23;;;;;;;4.30;3.10;;;;;;;;;;5028867;28;20910;-82
2023/05/01 14:27:49;;;;;;;4.50;3.60;;;;;;;;;;5027030;28;20415;-82
2023/05/01 14:30:20;;;;;;;3.85;2.90;;;;;;;;;;5024294;28;20406;-82
2023/05/01 14:32:46;;;;;;;6.53;3.70;;;;;;;;;;5030132;28;20435;-82
2023/05/01 14:35:13;;;;;;;5.55;3.30;;;;;;;;;;5028612;28;20489;-83
2023/05/01 14:37:40;;;;;;;6.22;3.67;;;;;;;;;;5029105;28;20995;-83
2023/05/01 14:40:11;;;;;;;5.03;3.30;;;;;;;;;;5028892;28;20423;-82